Betania, Argentina
Current Conditions -  °F | °C
As of 12:00 PM on Tuesday 21 Oct 2014 (Local Time) from SASJ Reporting Station
Scattered Clouds Scattered Clouds  
Wind Chill: 79°   Ceiling: Unl
Heat Index: 80°   Visibility: 6mi
Dew Point: 61°   Wind: 6mph
Humidity: 54%   Direction: 110°ESE
Pressure: 30.15"   Gusts: NA
Location:  24.68°S, 65.12°W
Report Text: SASJ 211500Z 11005KT 9999 SCT025 SCT20026/16 Q1021
Loading
Personal Weather Stations






























Interactive Weather Map
Tropical Storm Tracking
New forecast layout! Learn more

10-Day Weather Forecast

Advertisements
Track Severe Weather on mobile